Decoded Metar for PFCL ( in ) (IATA:) | Meteo·Mobile Aviation Weather
aviador You're here:

PFCL Decoded Metar

in
Report Time2018-10-19 19:56:00
UTC Time2018-10-19 20:26:14
Flight Rules vfr VFR
Wind270° at 09 kt
W.Decomp.*RWY 18: 9.0 kt RCW
W.Rank270° ranks 23
Current wind is above 270° avg. (6.5)
Visibility9999 m
Phenomena:N/A
Clouds:N/A
Expected CloudBase > 1,200 ft AGL from Temp-Dew spread
CeilingNone
Temp07°C
Dew Point04°C (81% RH)
AAT2.4°C
QNH994 hPa
Raw Report
PFCL 191956Z AUTO 27009KT 10SM CLR 07/04 A2934 RMK AO2 SLP927
T00670044 TSNO=

Extra information for PFCL:More info

Social comments